Portada
METAR-TAF:

METAR-TAF

Aeroports :

South Jersey Regional Airport

Mount Holly, Nova Jersey, Estats Units d'Amèrica

latitud: 39-56-26N, longitud: 074-50-28W, altitud: 16 m

Observació

L'informe es va fer fa 52 minuts, a les 16:54 UTC
Vent 9 kt del Nord/Nord-Est
Temperatura 6°C
Humitat 56%
Pressió 1024 hPa
Visibilitat: 16.1 km
Cel cobert a una alçada de 2400 ft

METAR: KVAY 171654Z AUTO 03009KT 10SM OVC024 06/M02 A3024 RMK AO2 SLP240 T00561017

Hora: 12:46 (17:46 UTC)


TAF: manca

Observacions i pronòstics meteorològics de més de 4000 aeroports (METAR i TAF).

Les estacions disponibles són els punts grocs i vermells al mapa.

Posi el ratolí al punt desitjat per veure el nom de l'estació.

Feu clic per veure les observacions i els pronòstics meteorològics.

Per canviar el mapa: feu clic els botons verds amb una creu de color negre per apropar; al botó verd amb un guió per allunyar la imatge; o en les fletxes verdes per a mapes adjacents.


METAR-TAF: